createdAt,value
2018-10-03T00:00:07.611Z,98632.00
2018-10-03T00:02:37.708Z,98630.00
2018-10-03T00:05:07.809Z,98630.00
2018-10-03T00:07:37.783Z,98629.00
2018-10-03T00:10:07.969Z,98628.00
2018-10-03T00:12:38.330Z,98613.00
2018-10-03T00:15:08.435Z,98588.00
2018-10-03T00:17:38.430Z,98583.00
2018-10-03T00:20:08.739Z,98598.00
2018-10-03T00:22:38.735Z,98593.00
2018-10-03T00:25:08.797Z,98615.00
2018-10-03T00:27:38.869Z,98607.00
2018-10-03T00:30:09.086Z,98609.00
2018-10-03T00:32:39.100Z,98605.00
2018-10-03T00:35:09.089Z,98606.00
2018-10-03T00:37:39.119Z,98600.00
2018-10-03T00:40:09.324Z,98612.00
2018-10-03T00:42:39.439Z,98606.00
2018-10-03T00:45:09.501Z,98611.00
2018-10-03T00:47:39.615Z,98595.00
2018-10-03T00:50:09.683Z,98583.00
2018-10-03T00:52:39.803Z,98592.00
2018-10-03T00:55:09.820Z,98600.00
2018-10-03T00:57:39.913Z,98600.00
2018-10-03T01:00:10.173Z,98597.00
2018-10-03T01:02:40.176Z,98598.00
2018-10-03T01:05:10.298Z,98590.00
2018-10-03T01:07:40.376Z,98595.00
2018-10-03T01:10:10.413Z,98591.00
2018-10-03T01:12:40.371Z,98595.00
2018-10-03T01:15:10.407Z,98586.00
2018-10-03T01:17:40.435Z,98585.00
2018-10-03T01:20:10.496Z,98589.00
2018-10-03T01:22:40.521Z,98588.00
2018-10-03T01:25:10.628Z,98586.00
2018-10-03T01:27:40.639Z,98581.00
2018-10-03T01:30:10.717Z,98580.00
2018-10-03T01:32:40.853Z,98581.00
2018-10-03T01:35:11.030Z,98585.00
2018-10-03T01:37:42.211Z,98585.00
2018-10-03T01:40:12.474Z,98578.00
2018-10-03T01:42:42.496Z,98581.00
2018-10-03T01:45:12.631Z,98587.00
2018-10-03T01:47:42.737Z,98590.00
2018-10-03T01:50:12.802Z,98603.00
2018-10-03T01:52:42.809Z,98599.00
2018-10-03T01:55:12.900Z,98596.00
2018-10-03T01:57:42.928Z,98591.00
2018-10-03T02:00:13.056Z,98588.00
2018-10-03T02:02:43.106Z,98596.00
2018-10-03T02:05:13.154Z,98597.00
2018-10-03T02:07:43.427Z,98599.00
2018-10-03T02:10:13.550Z,98599.00
2018-10-03T02:12:43.628Z,98594.00
2018-10-03T02:15:13.753Z,98588.00
2018-10-03T02:17:43.861Z,98590.00
2018-10-03T02:20:13.962Z,98593.00
2018-10-03T02:22:44.236Z,98592.00
2018-10-03T02:25:14.258Z,98590.00
2018-10-03T02:27:44.227Z,98595.00
2018-10-03T02:30:14.279Z,98596.00
2018-10-03T02:32:44.446Z,98604.00
2018-10-03T02:35:14.587Z,98594.00
2018-10-03T02:37:44.822Z,98596.00
2018-10-03T02:40:14.990Z,98595.00
2018-10-03T02:42:45.028Z,98594.00
2018-10-03T02:45:15.066Z,98582.00
2018-10-03T02:47:45.156Z,98595.00
2018-10-03T02:50:15.446Z,98599.00
2018-10-03T02:52:45.578Z,98602.00
2018-10-03T02:55:15.657Z,98610.00
2018-10-03T02:57:46.072Z,98605.00
2018-10-03T03:00:16.024Z,98610.00
2018-10-03T03:02:46.014Z,98606.00
2018-10-03T03:05:16.008Z,98605.00
2018-10-03T03:07:46.095Z,98603.00
2018-10-03T03:10:16.150Z,98602.00
2018-10-03T03:12:46.364Z,98599.00
2018-10-03T03:15:16.367Z,98598.00
2018-10-03T03:17:46.566Z,98593.00
2018-10-03T03:20:16.788Z,98593.00
2018-10-03T03:22:46.833Z,98595.00
2018-10-03T03:25:17.399Z,98597.00
2018-10-03T03:27:47.465Z,98594.00
2018-10-03T03:30:17.489Z,98596.00
2018-10-03T03:32:47.496Z,98605.00
2018-10-03T03:35:17.603Z,98602.00
2018-10-03T03:37:47.628Z,98611.00
2018-10-03T03:40:17.829Z,98603.00
2018-10-03T03:42:47.923Z,98600.00
2018-10-03T03:45:17.998Z,98603.00
2018-10-03T03:47:48.108Z,98606.00
2018-10-03T03:50:18.116Z,98601.00
2018-10-03T03:52:48.126Z,98601.00
2018-10-03T03:55:18.180Z,98607.00
2018-10-03T03:57:48.356Z,98611.00
2018-10-03T04:00:18.516Z,98613.00
2018-10-03T04:02:48.506Z,98619.00
2018-10-03T04:05:18.677Z,98625.00
2018-10-03T04:07:48.986Z,98624.00
2018-10-03T04:10:19.028Z,98624.00
2018-10-03T04:12:49.182Z,98621.00
2018-10-03T04:15:19.347Z,98625.00
2018-10-03T04:17:49.365Z,98622.00
2018-10-03T04:20:19.416Z,98626.00
2018-10-03T04:22:49.407Z,98623.00
2018-10-03T04:25:19.470Z,98622.00
2018-10-03T04:27:49.673Z,98621.00
2018-10-03T04:30:19.705Z,98614.00
2018-10-03T04:32:49.845Z,98623.00
2018-10-03T04:35:19.984Z,98624.00
2018-10-03T04:37:49.976Z,98628.00
2018-10-03T04:40:20.061Z,98630.00
2018-10-03T04:42:50.063Z,98634.00
2018-10-03T04:45:20.167Z,98641.00
2018-10-03T04:47:50.368Z,98639.00
2018-10-03T04:50:20.499Z,98649.00
2018-10-03T04:52:50.679Z,98644.00
2018-10-03T04:55:20.696Z,98650.00
2018-10-03T04:57:50.715Z,98647.00
2018-10-03T05:00:20.736Z,98633.00
2018-10-03T05:02:50.879Z,98639.00
2018-10-03T05:05:20.897Z,98645.00
2018-10-03T05:07:51.117Z,98638.00
2018-10-03T05:10:21.235Z,98624.00
2018-10-03T05:12:51.367Z,98627.00
2018-10-03T05:15:21.463Z,98641.00
2018-10-03T05:17:51.582Z,98643.00
2018-10-03T05:20:21.855Z,98646.00
2018-10-03T05:22:51.857Z,98644.00
2018-10-03T05:25:22.032Z,98644.00
2018-10-03T05:27:52.232Z,98631.00
2018-10-03T05:30:22.381Z,98642.00
2018-10-03T05:32:52.501Z,98639.00
2018-10-03T05:35:22.657Z,98646.00
2018-10-03T05:37:52.827Z,98646.00
2018-10-03T05:40:22.859Z,98642.00
2018-10-03T05:42:52.875Z,98643.00
2018-10-03T05:45:22.879Z,98650.00
2018-10-03T05:47:52.891Z,98654.00
2018-10-03T05:50:23.038Z,98656.00
2018-10-03T05:52:53.099Z,98653.00
2018-10-03T05:55:23.247Z,98662.00
2018-10-03T05:57:53.227Z,98661.00
2018-10-03T06:00:23.561Z,98673.00
2018-10-03T06:02:53.782Z,98688.00
2018-10-03T06:05:23.813Z,98687.00
2018-10-03T06:07:54.066Z,98682.00
2018-10-03T06:10:24.188Z,98690.00
2018-10-03T06:12:54.240Z,98696.00
2018-10-03T06:15:24.429Z,98694.00
2018-10-03T06:17:54.615Z,98703.00
2018-10-03T06:20:24.762Z,98711.00
2018-10-03T06:22:54.796Z,98706.00
2018-10-03T06:25:24.882Z,98711.00
2018-10-03T06:27:54.965Z,98716.00
2018-10-03T06:30:24.866Z,98723.00
2018-10-03T06:32:54.904Z,98733.00
2018-10-03T06:35:24.902Z,98740.00
2018-10-03T06:37:55.011Z,98746.00
2018-10-03T06:40:25.234Z,98742.00
2018-10-03T06:42:55.218Z,98754.00
2018-10-03T06:45:25.256Z,98760.00
2018-10-03T06:47:55.242Z,98765.00
2018-10-03T06:50:25.485Z,98773.00
2018-10-03T06:52:55.498Z,98776.00
2018-10-03T06:55:26.508Z,98773.00
2018-10-03T06:57:56.590Z,98778.00
2018-10-03T07:00:26.758Z,98780.00
2018-10-03T07:02:56.840Z,98786.00
2018-10-03T07:05:26.875Z,98788.00
2018-10-03T07:07:56.942Z,98789.00
2018-10-03T07:10:26.964Z,98794.00
2018-10-03T07:12:57.043Z,98787.00
2018-10-03T07:15:27.075Z,98795.00
2018-10-03T07:17:57.136Z,98796.00
2018-10-03T07:20:27.410Z,98795.00
2018-10-03T07:22:57.974Z,98802.00
2018-10-03T07:25:28.076Z,98812.00
2018-10-03T07:27:58.046Z,98806.00
2018-10-03T07:30:28.065Z,98805.00
2018-10-03T07:32:58.248Z,98811.00
2018-10-03T07:35:28.234Z,98810.00
2018-10-03T07:37:58.338Z,98820.00
2018-10-03T07:40:28.390Z,98820.00
2018-10-03T07:42:58.505Z,98822.00
2018-10-03T07:45:28.679Z,98827.00
2018-10-03T07:47:58.822Z,98830.00
2018-10-03T07:50:28.834Z,98828.00
2018-10-03T07:52:58.969Z,98828.00
2018-10-03T07:55:29.140Z,98827.00
2018-10-03T07:57:59.197Z,98833.00
2018-10-03T08:00:30.294Z,98848.00
2018-10-03T08:03:00.657Z,98846.00
2018-10-03T08:05:30.850Z,98843.00
2018-10-03T08:08:00.878Z,98840.00
2018-10-03T08:10:30.931Z,98842.00
2018-10-03T08:13:00.919Z,98846.00
2018-10-03T08:15:31.025Z,98846.00
2018-10-03T08:18:01.056Z,98851.00
2018-10-03T08:20:31.102Z,98853.00
2018-10-03T08:23:01.198Z,98858.00
2018-10-03T08:25:31.382Z,98857.00
2018-10-03T08:28:01.377Z,98856.00
2018-10-03T08:30:31.421Z,98857.00
2018-10-03T08:33:01.567Z,98860.00
2018-10-03T08:35:31.517Z,98865.00
2018-10-03T08:38:01.486Z,98859.00
2018-10-03T08:40:31.834Z,98856.00
2018-10-03T08:43:01.857Z,98855.00
2018-10-03T08:45:31.969Z,98863.00
2018-10-03T08:48:02.015Z,98856.00
2018-10-03T08:50:32.118Z,98857.00
2018-10-03T08:53:02.290Z,98853.00
2018-10-03T08:55:32.306Z,98861.00
2018-10-03T08:58:02.500Z,98862.00
2018-10-03T09:00:32.573Z,98867.00
2018-10-03T09:03:02.757Z,98866.00
2018-10-03T09:05:32.768Z,98868.00
2018-10-03T09:08:13.089Z,98875.00
2018-10-03T09:10:44.544Z,98879.00
2018-10-03T09:13:14.851Z,98886.00
2018-10-03T09:15:45.033Z,98875.00
2018-10-03T09:18:15.193Z,98872.00
2018-10-03T09:20:45.453Z,98874.00
2018-10-03T09:23:15.616Z,98880.00
2018-10-03T09:25:45.715Z,98869.00
2018-10-03T09:28:15.906Z,98864.00
2018-10-03T09:30:45.992Z,98881.00
2018-10-03T09:33:16.266Z,98864.00
2018-10-03T09:35:46.400Z,98872.00
2018-10-03T09:38:16.605Z,98868.00
2018-10-03T09:40:46.643Z,98876.00
2018-10-03T09:43:16.711Z,98881.00
2018-10-03T09:45:46.878Z,98886.00
2018-10-03T09:48:16.989Z,98882.00
2018-10-03T09:50:47.106Z,98893.00
2018-10-03T09:53:17.171Z,98882.00
2018-10-03T09:55:47.301Z,98883.00
2018-10-03T09:58:17.391Z,98883.00
2018-10-03T10:00:52.770Z,98886.00
2018-10-03T10:03:23.027Z,98889.00
2018-10-03T10:05:53.131Z,98888.00
2018-10-03T10:08:23.217Z,98884.00
2018-10-03T10:10:53.299Z,98888.00
2018-10-03T10:13:23.265Z,98879.00
2018-10-03T10:15:53.376Z,98888.00
2018-10-03T10:18:23.456Z,98893.00
2018-10-03T10:20:53.598Z,98881.00
2018-10-03T10:23:23.747Z,98883.00
2018-10-03T10:25:53.885Z,98887.00
2018-10-03T10:28:23.996Z,98878.00
2018-10-03T10:30:54.034Z,98873.00
2018-10-03T10:33:24.071Z,98871.00
2018-10-03T10:35:54.207Z,98879.00
2018-10-03T10:38:24.266Z,98881.00
2018-10-03T10:40:54.348Z,98880.00
2018-10-03T10:43:24.523Z,98883.00
2018-10-03T10:45:54.514Z,98872.00
2018-10-03T10:48:24.488Z,98880.00
2018-10-03T10:50:54.590Z,98871.00
2018-10-03T10:53:24.550Z,98883.00
2018-10-03T10:55:54.657Z,98886.00
2018-10-03T10:58:24.832Z,98897.00
2018-10-03T11:00:55.050Z,98902.00
2018-10-03T11:03:25.070Z,98904.00
2018-10-03T11:05:55.214Z,98902.00
2018-10-03T11:08:25.382Z,98909.00
2018-10-03T11:10:55.432Z,98911.00
2018-10-03T11:13:25.485Z,98902.00
2018-10-03T11:15:55.466Z,98904.00
2018-10-03T11:18:25.636Z,98902.00
2018-10-03T11:20:55.786Z,98901.00
2018-10-03T11:23:25.912Z,98900.00
2018-10-03T11:25:56.222Z,98906.00
2018-10-03T11:28:26.214Z,98908.00
2018-10-03T11:30:56.235Z,98910.00
2018-10-03T11:33:26.370Z,98915.00
2018-10-03T11:35:56.703Z,98913.00
2018-10-03T11:38:26.952Z,98910.00
2018-10-03T11:40:57.099Z,98907.00
2018-10-03T11:43:27.148Z,98910.00
2018-10-03T11:45:57.306Z,98902.00
2018-10-03T11:48:27.354Z,98908.00
2018-10-03T11:50:57.516Z,98905.00
2018-10-03T11:53:28.293Z,98898.00
2018-10-03T11:55:58.553Z,98897.00
2018-10-03T11:58:28.665Z,98895.00
2018-10-03T12:00:58.782Z,98907.00
2018-10-03T12:03:28.843Z,98902.00
2018-10-03T12:05:58.889Z,98897.00
2018-10-03T12:08:28.897Z,98902.00
2018-10-03T12:10:59.016Z,98908.00
2018-10-03T12:13:29.092Z,98904.00
2018-10-03T12:15:59.251Z,98896.00
2018-10-03T12:18:29.307Z,98894.00
2018-10-03T12:20:59.476Z,98897.00
2018-10-03T12:23:29.640Z,98896.00
2018-10-03T12:25:59.748Z,98901.00
2018-10-03T12:28:29.734Z,98889.00
2018-10-03T12:30:59.853Z,98894.00
2018-10-03T12:33:29.991Z,98889.00
2018-10-03T12:35:59.957Z,98894.00
2018-10-03T12:38:30.135Z,98901.00
2018-10-03T12:41:00.107Z,98894.00
2018-10-03T12:43:30.232Z,98892.00
2018-10-03T12:46:00.428Z,98894.00
2018-10-03T12:48:30.466Z,98882.00
2018-10-03T12:51:00.591Z,98885.00
2018-10-03T12:53:31.134Z,98887.00
2018-10-03T12:56:01.151Z,98891.00
2018-10-03T12:58:31.312Z,98895.00
2018-10-03T13:01:01.324Z,98893.00
2018-10-03T13:03:31.891Z,98894.00
2018-10-03T13:06:02.007Z,98888.00
2018-10-03T13:08:32.246Z,98889.00
2018-10-03T13:11:02.339Z,98891.00
2018-10-03T13:13:32.973Z,98883.00
2018-10-03T13:16:03.280Z,98880.00
2018-10-03T13:18:33.489Z,98890.00
2018-10-03T13:21:03.613Z,98887.00
2018-10-03T13:23:33.831Z,98880.00
2018-10-03T13:26:03.946Z,98891.00
2018-10-03T13:28:34.003Z,98887.00
2018-10-03T13:31:04.127Z,98884.00
2018-10-03T13:33:34.316Z,98888.00
2018-10-03T13:36:04.396Z,98889.00
2018-10-03T13:38:34.537Z,98884.00
2018-10-03T13:41:04.570Z,98884.00
2018-10-03T13:43:34.598Z,98889.00
2018-10-03T13:46:04.605Z,98891.00
2018-10-03T13:48:34.808Z,98885.00
2018-10-03T13:51:04.959Z,98886.00
2018-10-03T13:53:35.191Z,98882.00
2018-10-03T13:56:05.393Z,98888.00
2018-10-03T13:58:35.463Z,98892.00
2018-10-03T14:01:05.765Z,98901.00
2018-10-03T14:03:35.955Z,98906.00
2018-10-03T14:06:06.226Z,98902.00
2018-10-03T14:08:36.430Z,98907.00
2018-10-03T14:11:06.667Z,98916.00
2018-10-03T14:13:36.787Z,98906.00
2018-10-03T14:16:07.017Z,98904.00
2018-10-03T14:18:37.269Z,98902.00
2018-10-03T14:21:07.267Z,98905.00
2018-10-03T14:23:37.265Z,98902.00
2018-10-03T14:26:07.373Z,98899.00
2018-10-03T14:28:37.601Z,98912.00
2018-10-03T14:31:07.913Z,98916.00
2018-10-03T14:33:37.941Z,98912.00
2018-10-03T14:36:08.193Z,98911.00
2018-10-03T14:38:38.316Z,98912.00
2018-10-03T14:41:08.771Z,98915.00
2018-10-03T14:43:38.846Z,98918.00
2018-10-03T14:46:09.062Z,98922.00
2018-10-03T14:48:39.115Z,98922.00
2018-10-03T14:51:09.155Z,98925.00
2018-10-03T14:53:39.279Z,98923.00
2018-10-03T14:56:09.715Z,98924.00
2018-10-03T14:58:39.866Z,98928.00
2018-10-03T15:01:09.890Z,98920.00
2018-10-03T15:03:40.013Z,98918.00
2018-10-03T15:06:10.160Z,98925.00
2018-10-03T15:08:40.151Z,98921.00
2018-10-03T15:11:10.253Z,98915.00
2018-10-03T15:13:40.312Z,98927.00
2018-10-03T15:16:10.822Z,98927.00
2018-10-03T15:18:41.020Z,98933.00
2018-10-03T15:21:11.067Z,98936.00
2018-10-03T15:23:41.146Z,98942.00
2018-10-03T15:26:11.291Z,98953.00
2018-10-03T15:28:41.397Z,98952.00
2018-10-03T15:31:11.537Z,98954.00
2018-10-03T15:33:41.720Z,98958.00
2018-10-03T15:36:12.319Z,98955.00
2018-10-03T15:38:43.297Z,98952.00
2018-10-03T15:41:13.490Z,98950.00
2018-10-03T15:43:43.541Z,98951.00
2018-10-03T15:46:13.587Z,98957.00
2018-10-03T15:48:43.598Z,98956.00
2018-10-03T15:51:13.938Z,98960.00
2018-10-03T15:53:44.126Z,98960.00
2018-10-03T15:56:14.279Z,98964.00
2018-10-03T15:58:44.465Z,98971.00
2018-10-03T16:01:14.824Z,98972.00
2018-10-03T16:03:44.958Z,98984.00
2018-10-03T16:06:15.122Z,98981.00
2018-10-03T16:08:45.286Z,98985.00
2018-10-03T16:11:15.350Z,98985.00
2018-10-03T16:13:45.570Z,98994.00
2018-10-03T16:16:15.715Z,98990.00
2018-10-03T16:18:45.901Z,99005.00
2018-10-03T16:21:16.377Z,99002.00
2018-10-03T16:23:46.424Z,99008.00
2018-10-03T16:26:16.586Z,99012.00
2018-10-03T16:28:46.636Z,99017.00
2018-10-03T16:31:17.685Z,99022.00
2018-10-03T16:33:47.941Z,99024.00
2018-10-03T16:36:18.006Z,99025.00
2018-10-03T16:38:48.143Z,99029.00
2018-10-03T16:41:18.248Z,99036.00
2018-10-03T16:43:48.405Z,99035.00
2018-10-03T16:46:18.596Z,99037.00
2018-10-03T16:48:49.044Z,99047.00
2018-10-03T16:51:20.361Z,99048.00
2018-10-03T16:53:50.552Z,99057.00
2018-10-03T16:56:20.788Z,99060.00
2018-10-03T16:58:50.927Z,99060.00
2018-10-03T17:01:21.902Z,99064.00
2018-10-03T17:03:52.050Z,99070.00
2018-10-03T17:06:22.342Z,99066.00
2018-10-03T17:08:52.409Z,99069.00
2018-10-03T17:11:22.486Z,99069.00
2018-10-03T17:14:34.754Z,99072.00
2018-10-03T17:17:04.925Z,99075.00
2018-10-03T17:19:35.336Z,99081.00
2018-10-03T17:22:05.541Z,99083.00
2018-10-03T17:24:36.809Z,99091.00
2018-10-03T17:27:07.210Z,99090.00
2018-10-03T17:29:37.341Z,99099.00
2018-10-03T17:32:07.559Z,99101.00
2018-10-03T17:34:37.479Z,99105.00
2018-10-03T17:37:07.687Z,99106.00
2018-10-03T17:39:37.901Z,99108.00
2018-10-03T17:42:08.183Z,99108.00
2018-10-03T17:44:38.373Z,99104.00
2018-10-03T17:47:08.576Z,99110.00
2018-10-03T17:49:38.775Z,99116.00
2018-10-03T17:52:08.889Z,99120.00
2018-10-03T17:54:38.921Z,99117.00
2018-10-03T17:57:09.121Z,99124.00
2018-10-03T17:59:39.203Z,99135.00
2018-10-03T18:02:11.041Z,99135.00
2018-10-03T18:04:41.121Z,99131.00
2018-10-03T18:07:11.311Z,99135.00
2018-10-03T18:09:41.390Z,99138.00
2018-10-03T18:12:11.671Z,99138.00
2018-10-03T18:14:41.771Z,99144.00
2018-10-03T18:17:11.952Z,99149.00
2018-10-03T18:19:42.210Z,99151.00
2018-10-03T18:22:12.331Z,99157.00
2018-10-03T18:24:43.575Z,99157.00
2018-10-03T18:27:13.870Z,99156.00
2018-10-03T18:29:44.049Z,99165.00
2018-10-03T18:32:14.224Z,99169.00
2018-10-03T18:34:44.309Z,99166.00
2018-10-03T18:37:14.509Z,99170.00
2018-10-03T18:39:44.626Z,99158.00
2018-10-03T18:42:14.864Z,99167.00
2018-10-03T18:44:44.937Z,99168.00
2018-10-03T18:47:15.129Z,99174.00
2018-10-03T18:49:46.396Z,99175.00
2018-10-03T18:52:16.725Z,99176.00
2018-10-03T18:54:46.889Z,99173.00
2018-10-03T18:57:17.008Z,99177.00
2018-10-03T18:59:47.088Z,99178.00
2018-10-03T19:02:17.378Z,99179.00
2018-10-03T19:04:47.578Z,99180.00
2018-10-03T19:07:17.913Z,99184.00
2018-10-03T19:09:48.162Z,99187.00
2018-10-03T19:12:18.399Z,99193.00
2018-10-03T19:14:48.340Z,99194.00
2018-10-03T19:17:18.471Z,99203.00
2018-10-03T19:19:48.774Z,99202.00
2018-10-03T19:22:19.427Z,99201.00
2018-10-03T19:24:49.429Z,99197.00
2018-10-03T19:27:19.513Z,99200.00
2018-10-03T19:29:49.554Z,99200.00
2018-10-03T19:32:19.786Z,99196.00
2018-10-03T19:34:49.800Z,99196.00
2018-10-03T19:37:19.912Z,99200.00
2018-10-03T19:39:50.082Z,99202.00
2018-10-03T19:42:20.371Z,99205.00
2018-10-03T19:44:50.285Z,99212.00
2018-10-03T19:47:20.494Z,99212.00
2018-10-03T19:49:50.670Z,99213.00
2018-10-03T19:52:20.811Z,99217.00
2018-10-03T19:54:50.890Z,99218.00
2018-10-03T19:57:21.049Z,99221.00
2018-10-03T19:59:51.267Z,99217.00
2018-10-03T20:02:21.399Z,99217.00
2018-10-03T20:04:51.598Z,99219.00
2018-10-03T20:07:22.042Z,99222.00
2018-10-03T20:09:52.293Z,99227.00
2018-10-03T20:12:22.346Z,99223.00
2018-10-03T20:14:52.524Z,99226.00
2018-10-03T20:17:22.559Z,99231.00
2018-10-03T20:19:52.702Z,99226.00
2018-10-03T20:22:22.783Z,99222.00
2018-10-03T20:24:52.816Z,99225.00
2018-10-03T20:27:22.981Z,99220.00
2018-10-03T20:29:52.991Z,99220.00
2018-10-03T20:32:23.123Z,99224.00
2018-10-03T20:34:53.572Z,99232.00
2018-10-03T20:37:23.728Z,99231.00
2018-10-03T20:39:53.773Z,99236.00
2018-10-03T20:42:23.871Z,99236.00
2018-10-03T20:44:53.991Z,99235.00
2018-10-03T20:47:24.152Z,99229.00
2018-10-03T20:49:54.290Z,99233.00
2018-10-03T20:52:24.432Z,99236.00
2018-10-03T20:54:54.437Z,99230.00
2018-10-03T20:57:24.595Z,99229.00
2018-10-03T20:59:54.746Z,99229.00
2018-10-03T21:02:24.903Z,99228.00
2018-10-03T21:04:55.109Z,99223.00
2018-10-03T21:07:25.124Z,99227.00
2018-10-03T21:09:55.063Z,99227.00
2018-10-03T21:12:25.227Z,99227.00
2018-10-03T21:14:55.798Z,99238.00
2018-10-03T21:17:26.082Z,99235.00
2018-10-03T21:20:06.095Z,99236.00
2018-10-03T21:22:36.308Z,99244.00
2018-10-03T21:25:06.402Z,99247.00
2018-10-03T21:27:36.422Z,99251.00
2018-10-03T21:30:07.388Z,99250.00
2018-10-03T21:32:37.944Z,99253.00
2018-10-03T21:35:08.284Z,99252.00
2018-10-03T21:37:38.558Z,99254.00
2018-10-03T21:40:08.747Z,99259.00
2018-10-03T21:42:38.897Z,99254.00
2018-10-03T21:45:08.897Z,99259.00
2018-10-03T21:47:39.051Z,99256.00
2018-10-03T21:50:09.073Z,99263.00
2018-10-03T21:52:39.341Z,99259.00
2018-10-03T21:55:09.367Z,99260.00
2018-10-03T21:57:39.371Z,99255.00
2018-10-03T22:00:10.001Z,99257.00
2018-10-03T22:02:40.149Z,99255.00
2018-10-03T22:05:10.710Z,99250.00
2018-10-03T22:07:40.826Z,99246.00
2018-10-03T22:10:10.934Z,99254.00
2018-10-03T22:12:41.064Z,99254.00
2018-10-03T22:15:11.054Z,99254.00
2018-10-03T22:17:41.804Z,99254.00
2018-10-03T22:20:11.857Z,99253.00
2018-10-03T22:22:42.007Z,99254.00
2018-10-03T22:25:11.950Z,99260.00
2018-10-03T22:27:42.002Z,99263.00
2018-10-03T22:30:11.987Z,99265.00
2018-10-03T22:32:42.114Z,99260.00
2018-10-03T22:35:12.261Z,99258.00
2018-10-03T22:37:42.434Z,99259.00
2018-10-03T22:40:12.459Z,99260.00
2018-10-03T22:42:44.005Z,99269.00
2018-10-03T22:45:14.107Z,99260.00
2018-10-03T22:47:44.298Z,99260.00
2018-10-03T22:50:14.266Z,99265.00
2018-10-03T22:52:44.304Z,99267.00
2018-10-03T22:55:14.325Z,99266.00
2018-10-03T22:57:44.389Z,99268.00
2018-10-03T23:00:14.549Z,99271.00
2018-10-03T23:02:44.517Z,99273.00
2018-10-03T23:05:14.649Z,99269.00
2018-10-03T23:07:44.609Z,99273.00
2018-10-03T23:10:14.666Z,99269.00
2018-10-03T23:12:44.894Z,99269.00
2018-10-03T23:15:15.147Z,99265.00
2018-10-03T23:17:45.183Z,99271.00
2018-10-03T23:20:15.199Z,99274.00
2018-10-03T23:22:45.245Z,99274.00
2018-10-03T23:25:15.281Z,99277.00
2018-10-03T23:27:45.237Z,99282.00
2018-10-03T23:30:15.488Z,99285.00
2018-10-03T23:32:45.686Z,99288.00
2018-10-03T23:35:15.755Z,99288.00
2018-10-03T23:37:45.723Z,99287.00
2018-10-03T23:40:15.868Z,99287.00
2018-10-03T23:42:45.912Z,99303.00
2018-10-03T23:45:15.916Z,99301.00
2018-10-03T23:47:45.908Z,99309.00
2018-10-03T23:50:16.024Z,99304.00
2018-10-03T23:52:46.225Z,99306.00
2018-10-03T23:55:16.274Z,99306.00
2018-10-03T23:57:46.422Z,99308.00
